createdAt,value
2019-03-03T00:03:08.073Z,20.28
2019-03-03T00:08:17.122Z,17.36
2019-03-03T00:13:26.309Z,24.24
2019-03-03T00:18:35.363Z,22.70
2019-03-03T00:23:48.694Z,28.19
2019-03-03T00:28:47.710Z,13.45
2019-03-03T00:33:56.931Z,8.12
2019-03-03T00:39:06.027Z,13.10
2019-03-03T00:44:15.133Z,11.15
2019-03-03T00:49:24.290Z,8.46
2019-03-03T00:54:33.391Z,9.10
2019-03-03T00:59:43.622Z,13.07
2019-03-03T01:04:42.763Z,9.54
2019-03-03T01:09:51.775Z,9.66
2019-03-03T01:15:00.956Z,6.45
2019-03-03T01:20:09.972Z,8.86
2019-03-03T01:25:19.095Z,9.41
2019-03-03T01:30:28.151Z,15.72
2019-03-03T01:35:37.383Z,25.39
2019-03-03T01:40:46.417Z,23.92
2019-03-03T01:45:55.545Z,21.17
2019-03-03T01:51:04.595Z,28.78
2019-03-03T01:56:13.770Z,28.79
2019-03-03T02:01:22.851Z,17.63
2019-03-03T02:06:32.001Z,31.45
2019-03-03T02:11:41.062Z,34.54
2019-03-03T02:16:50.169Z,27.97
2019-03-03T02:21:59.246Z,23.40
2019-03-03T02:27:08.570Z,24.58
2019-03-03T02:32:17.667Z,20.95
2019-03-03T02:37:26.742Z,19.67
2019-03-03T02:42:35.789Z,24.63
2019-03-03T02:47:45.267Z,22.72
2019-03-03T02:52:54.535Z,30.96
2019-03-03T02:58:03.684Z,26.99
2019-03-03T03:03:12.722Z,32.01
2019-03-03T03:08:21.899Z,31.92
2019-03-03T03:13:30.956Z,27.48
2019-03-03T03:18:40.084Z,26.38
2019-03-03T03:23:49.126Z,32.76
2019-03-03T03:28:58.246Z,23.23
2019-03-03T03:34:07.306Z,18.39
2019-03-03T03:39:16.421Z,23.62
2019-03-03T03:44:25.558Z,18.75
2019-03-03T03:49:34.637Z,20.35
2019-03-03T03:54:43.735Z,19.62
2019-03-03T03:59:52.853Z,23.06
2019-03-03T04:05:01.903Z,26.33
2019-03-03T04:10:11.033Z,18.84
2019-03-03T04:15:20.302Z,29.73
2019-03-03T04:20:29.605Z,30.79
2019-03-03T04:25:38.611Z,27.31
2019-03-03T04:30:47.735Z,29.30
2019-03-03T04:35:56.779Z,21.65
2019-03-03T04:41:05.919Z,22.32
2019-03-03T04:46:14.987Z,26.42
2019-03-03T04:51:24.125Z,29.88
2019-03-03T04:56:33.185Z,30.77
2019-03-03T05:01:42.497Z,38.51
2019-03-03T05:06:51.503Z,38.95
2019-03-03T05:12:00.671Z,28.31
2019-03-03T05:17:09.675Z,24.52
2019-03-03T05:22:18.833Z,26.78
2019-03-03T05:27:27.916Z,30.05
2019-03-03T05:32:37.152Z,35.52
2019-03-03T05:37:46.179Z,20.12
2019-03-03T05:42:55.419Z,27.47
2019-03-03T05:48:04.453Z,19.43
2019-03-03T05:53:13.574Z,27.18
2019-03-03T05:58:22.678Z,27.40
2019-03-03T06:03:31.951Z,22.85
2019-03-03T06:08:41.006Z,22.27
2019-03-03T06:13:50.146Z,17.78
2019-03-03T06:18:59.226Z,23.15
2019-03-03T06:24:08.304Z,17.91
2019-03-03T06:29:17.350Z,19.39
2019-03-03T06:34:26.535Z,19.11
2019-03-03T06:39:35.722Z,27.49
2019-03-03T06:44:44.807Z,20.94
2019-03-03T06:49:53.945Z,23.04
2019-03-03T06:55:03.242Z,21.60
2019-03-03T07:00:12.285Z,20.21
2019-03-03T07:05:21.350Z,20.71
2019-03-03T07:10:30.386Z,23.21
2019-03-03T07:15:39.582Z,15.21
2019-03-03T07:20:48.675Z,21.76
2019-03-03T07:25:57.835Z,21.56
2019-03-03T07:31:06.918Z,22.86
2019-03-03T07:36:16.074Z,27.40
2019-03-03T07:41:25.147Z,29.93
2019-03-03T07:46:34.296Z,22.65
2019-03-03T07:51:43.327Z,25.13
2019-03-03T07:56:52.418Z,27.50
2019-03-03T08:02:01.462Z,22.07
2019-03-03T08:07:10.538Z,22.20
2019-03-03T08:12:19.584Z,24.11
2019-03-03T08:17:28.715Z,22.71
2019-03-03T08:22:37.770Z,23.09
2019-03-03T08:27:47.217Z,23.82
2019-03-03T08:32:56.279Z,22.44
2019-03-03T08:38:05.417Z,24.25
2019-03-03T08:43:14.450Z,24.54
2019-03-03T08:48:23.569Z,17.89
2019-03-03T08:53:33.579Z,27.38
2019-03-03T08:58:32.705Z,22.22
2019-03-03T09:03:41.813Z,24.54
2019-03-03T09:08:51.214Z,22.96
2019-03-03T09:14:00.267Z,20.14
2019-03-03T09:19:09.391Z,24.61
2019-03-03T09:24:18.437Z,18.73
2019-03-03T09:29:26.621Z,25.99
2019-03-03T09:34:35.718Z,25.62
2019-03-03T09:39:45.386Z,20.37
2019-03-03T09:44:54.390Z,19.62
2019-03-03T09:50:03.605Z,7.42
2019-03-03T09:55:12.703Z,11.64
2019-03-03T10:00:20.439Z,10.95
2019-03-03T10:05:29.516Z,10.43
2019-03-03T10:10:38.664Z,15.71
2019-03-03T10:15:47.882Z,14.03
2019-03-03T10:20:57.031Z,14.65
2019-03-03T10:26:06.042Z,14.92
2019-03-03T10:31:15.263Z,12.98
2019-03-03T10:36:24.338Z,17.81
2019-03-03T10:41:34.558Z,15.05
2019-03-03T10:46:33.566Z,16.12
2019-03-03T10:51:42.688Z,10.93
2019-03-03T10:56:51.755Z,8.94
2019-03-03T11:02:00.963Z,16.67
2019-03-03T11:07:09.995Z,23.58
2019-03-03T11:12:19.327Z,18.11
2019-03-03T11:17:28.342Z,21.31
2019-03-03T11:22:36.161Z,21.25
2019-03-03T11:27:45.762Z,26.57
2019-03-03T11:32:54.883Z,20.96
2019-03-03T11:38:03.954Z,23.66
2019-03-03T11:43:13.230Z,26.52
2019-03-03T11:48:22.288Z,21.93
2019-03-03T11:53:31.402Z,22.22
2019-03-03T11:58:40.448Z,24.02
2019-03-03T12:03:49.558Z,27.78
2019-03-03T12:08:58.621Z,26.11
2019-03-03T12:14:07.882Z,25.52
2019-03-03T12:19:16.966Z,19.47
2019-03-03T12:24:26.082Z,27.78
2019-03-03T12:29:35.130Z,23.04
2019-03-03T12:34:44.992Z,17.54
2019-03-03T12:39:54.047Z,18.82
2019-03-03T12:45:03.251Z,19.40
2019-03-03T12:50:12.305Z,17.15
2019-03-03T12:55:21.454Z,20.00
2019-03-03T13:00:30.531Z,22.50
2019-03-03T13:05:39.618Z,18.48
2019-03-03T13:10:48.682Z,15.58
2019-03-03T13:15:57.926Z,17.62
2019-03-03T13:21:06.998Z,19.76
2019-03-03T13:26:16.178Z,19.02
2019-03-03T13:31:25.230Z,20.48
2019-03-03T13:36:34.306Z,23.36
2019-03-03T13:41:43.359Z,13.62
2019-03-03T13:46:52.492Z,17.06
2019-03-03T13:52:01.571Z,16.68
2019-03-03T13:57:10.811Z,16.79
2019-03-03T14:02:19.858Z,15.34
2019-03-03T14:07:28.987Z,15.56
2019-03-03T14:12:38.478Z,13.50
2019-03-03T14:17:46.696Z,17.64
2019-03-03T14:22:55.772Z,14.41
2019-03-03T14:28:04.991Z,19.83
2019-03-03T14:33:14.061Z,18.90
2019-03-03T14:38:23.204Z,14.68
2019-03-03T14:43:32.287Z,16.81
2019-03-03T14:48:41.473Z,14.68
2019-03-03T14:53:50.578Z,10.87
2019-03-03T14:58:59.734Z,11.05
2019-03-03T15:04:08.791Z,14.86
2019-03-03T15:09:18.046Z,12.96
2019-03-03T15:14:27.193Z,17.57
2019-03-03T15:19:36.409Z,13.15
2019-03-03T15:24:45.470Z,19.72
2019-03-03T15:29:54.598Z,15.77
2019-03-03T15:35:03.623Z,17.49
2019-03-03T15:40:12.818Z,19.40
2019-03-03T15:45:21.883Z,16.04
2019-03-03T15:50:31.194Z,22.33
2019-03-03T15:55:40.245Z,17.62
2019-03-03T16:00:49.887Z,18.00
2019-03-03T16:05:58.937Z,19.58
2019-03-03T16:11:08.078Z,12.58
2019-03-03T16:16:17.179Z,15.77
2019-03-03T16:21:26.375Z,11.39
2019-03-03T16:26:35.462Z,15.16
2019-03-03T16:31:44.562Z,7.47
2019-03-03T16:36:53.614Z,8.06
2019-03-03T16:42:02.764Z,8.22
2019-03-03T16:47:11.771Z,11.05
2019-03-03T16:52:22.007Z,7.70
2019-03-03T16:57:21.037Z,9.26
2019-03-03T17:02:30.182Z,10.54
2019-03-03T17:07:39.374Z,8.35
2019-03-03T17:12:48.641Z,12.13
2019-03-03T17:17:57.695Z,13.06
2019-03-03T17:23:07.894Z,12.95
2019-03-03T17:28:06.900Z,14.59
2019-03-03T17:33:16.090Z,10.90
2019-03-03T17:38:25.150Z,12.39
2019-03-03T17:43:36.042Z,11.08
2019-03-03T17:48:43.008Z,11.83
2019-03-03T17:53:52.146Z,12.02
2019-03-03T17:59:01.212Z,11.46
2019-03-03T18:04:10.337Z,17.03
2019-03-03T18:09:19.407Z,9.76
2019-03-03T18:14:28.634Z,10.40
2019-03-03T18:19:37.740Z,10.87
2019-03-03T18:24:46.846Z,8.36
2019-03-03T18:29:55.857Z,11.05
2019-03-03T18:35:05.022Z,12.71
2019-03-03T18:40:14.063Z,9.18
2019-03-03T18:45:23.196Z,8.22
2019-03-03T18:50:34.267Z,11.02
2019-03-03T18:55:33.372Z,15.59
2019-03-03T19:00:42.455Z,11.71
2019-03-03T19:05:55.769Z,12.09
2019-03-03T19:11:00.710Z,14.56
2019-03-03T19:16:08.426Z,9.45
2019-03-03T19:21:17.490Z,13.44
2019-03-03T19:26:26.600Z,10.79
2019-03-03T19:31:35.642Z,9.94
2019-03-03T19:36:45.886Z,11.75
2019-03-03T19:41:53.382Z,11.93
2019-03-03T19:47:02.547Z,12.25
2019-03-03T19:52:11.638Z,16.23
2019-03-03T19:57:20.910Z,6.89
2019-03-03T20:02:29.996Z,14.27
2019-03-03T20:07:39.117Z,11.16
2019-03-03T20:12:48.214Z,9.49
2019-03-03T20:17:57.342Z,9.88
2019-03-03T20:23:06.412Z,11.26
2019-03-03T20:28:15.587Z,8.73
2019-03-03T20:33:24.653Z,11.22
2019-03-03T20:38:33.796Z,11.06
2019-03-03T20:43:42.846Z,9.39
2019-03-03T20:48:52.392Z,11.12
2019-03-03T20:54:01.494Z,10.78
2019-03-03T20:59:10.697Z,9.34
2019-03-03T21:04:19.745Z,11.58
2019-03-03T21:09:28.890Z,12.93
2019-03-03T21:14:38.275Z,12.28
2019-03-03T21:19:47.413Z,9.68
2019-03-03T21:24:56.520Z,12.23
2019-03-03T21:30:05.733Z,12.47
2019-03-03T21:35:14.831Z,9.58
2019-03-03T21:40:23.985Z,10.34
2019-03-03T21:45:33.014Z,8.37
2019-03-03T21:50:42.247Z,8.50
2019-03-03T21:55:51.311Z,5.34
2019-03-03T22:01:00.550Z,6.74
2019-03-03T22:06:10.553Z,9.04
2019-03-03T22:11:09.670Z,8.14
2019-03-03T22:16:18.734Z,6.42
2019-03-03T22:21:27.854Z,6.35
2019-03-03T22:26:36.885Z,6.02
2019-03-03T22:31:46.033Z,6.43
2019-03-03T22:36:55.078Z,6.56
2019-03-03T22:42:04.428Z,6.42
2019-03-03T22:47:13.489Z,5.24
2019-03-03T22:52:23.642Z,7.08
2019-03-03T22:57:22.667Z,5.79
2019-03-03T23:02:31.943Z,6.31
2019-03-03T23:07:40.990Z,7.26
2019-03-03T23:12:50.124Z,6.60
2019-03-03T23:17:59.176Z,7.71
2019-03-03T23:23:08.319Z,7.21
2019-03-03T23:28:17.377Z,7.57
2019-03-03T23:33:26.491Z,4.76
2019-03-03T23:38:35.590Z,7.84
2019-03-03T23:43:44.800Z,6.21
2019-03-03T23:48:53.825Z,8.02
2019-03-03T23:54:02.962Z,7.15
2019-03-03T23:59:11.987Z,8.06
